Main page
METAR-TAF:

METAR-TAF

Airports :

Wawa Airport

Wawa, Ontario, Canada

latitude: 47-58N, longitude: 084-47W, elevation: 287 m

Current weather observation

The report was made 36 minutes ago, at 19:00 UTC
Wind 5 kt from the Northeast, varying between North and East/Northeast
Temperature 21°C
Humidity 46%
Pressure 1029 hPa
Visibility: 24.1 km
Scattered clouds at a height of 12000 ft
Broken clouds at a height of 14000 ft

METAR: CYXZ 201900Z 05005KT 010V070 15SM SCT120 BKN140 21/09 A3038 RMK AC4AC3 SLP294 DENSITY ALT 1400FT

Time: 15:36 (19:36 UTC)

Forecast

The report was made 6 hours and 56 minutes ago, at 12:40 UTC
Forecast valid from 20 at 13 UTC to 20 at 24 UTC
Wind 5 kt from the North/Northeast
Visibility: 10 km
Few clouds at a height of 13000 ft
Becoming
from 20 at 16 UTC to 20 at 18 UTC
Overcast at a height of 12000 ft

TAF: CYXZ 201240Z 2013/2024 02005KT P6SM FEW130 BECMG 2016/2018 OVC120 RMK NXT FCST BY 202000Z

Weather observations and forecasts of more than 4000 airports (METAR and TAF reports).

The available stations are represented by yellow and red dots on the map.

Hover mouse over dot to see the name of the station.

Then click to see weather observations and forecasts.

To change the map : click on the green buttons with a black cross to zoom in, on the green button with a dash to zoom out, or on the green arrows for adjacent maps.


METAR-TAF: